CheckWX is a tool to help pilots better visualize weather data.  It is not intended as a substitute for an official pre-flight weather briefing.

06:14:28 UTC

CYVR METAR
Vancouver International Airport
Vancouver, Canada
Current

14 mins ago

CYVR 220600Z 09009KT 20SM BKN090 OVC130 11/06 A3027 RMK AC7AC1 SLP252
Observed
Apr-22 @ 06:00 UTC
Wind
  • 090° at 9 KTS
Visibility
20 SM
Flight Rules
VFR
Cloud Levels
  • Broken at 9,000' AGL
  • Overcast at 13,000' AGL
Temperature
11°C / 52°F
Dewpoint
C / 43°F
Humidity
72%
Altimeter
30.27" Hg
Pressure
1025.02 hPa
Previous

1 hour ago

CYVR 220500Z 10009KT 20SM BKN110 OVC140 11/06 A3027 RMK AC6AC2 SLP253
Observed
Apr-22 @ 05:00 UTC
Wind
  • 100° at 9 KTS
Visibility
20 SM
Flight Rules
VFR
Cloud Levels
  • Broken at 11,000' AGL
  • Overcast at 14,000' AGL
Temperature
11°C / 52°F
Dewpoint
C / 43°F
Humidity
72%
Altimeter
30.27" Hg
Pressure
1025.02 hPa
Previous

2 hours ago

CYVR 220400Z 10010KT 20SM FEW100 BKN140 11/06 A3027 RMK AC2AC5 SLP251
Observed
Apr-22 @ 04:00 UTC
Wind
  • 100° at 10 KTS
Visibility
20 SM
Flight Rules
VFR
Cloud Levels
  • Few at 10,000' AGL
  • Broken at 14,000' AGL
Temperature
11°C / 52°F
Dewpoint
C / 43°F
Humidity
72%
Altimeter
30.27" Hg
Pressure
1025.02 hPa